sensor_id;sensor_type;location;lat;lon;timestamp;pressure;altitude;pressure_sealevel;temperature;humidity
62524;BME280;53689;56.878;60.672;2023-07-13T00:00:08;97352.41;;;25.87;40.03
62524;BME280;53689;56.878;60.672;2023-07-13T00:02:40;97361.78;;;25.97;40.02
62524;BME280;53689;56.878;60.672;2023-07-13T00:05:09;97359.63;;;26.16;39.11
62524;BME280;53689;56.878;60.672;2023-07-13T00:07:37;97365.09;;;26.38;38.66
62524;BME280;53689;56.878;60.672;2023-07-13T00:10:06;97362.94;;;26.01;39.96
62524;BME280;53689;56.878;60.672;2023-07-13T00:12:35;97369.97;;;25.33;40.95
62524;BME280;53689;56.878;60.672;2023-07-13T00:15:09;97369.91;;;25.97;39.81
62524;BME280;53689;56.878;60.672;2023-07-13T00:17:37;97371.91;;;25.67;40.29
62524;BME280;53689;56.878;60.672;2023-07-13T00:20:06;97371.09;;;25.67;39.59
62524;BME280;53689;56.878;60.672;2023-07-13T00:22:33;97375.03;;;25.59;39.93
62524;BME280;53689;56.878;60.672;2023-07-13T00:25:01;97385.28;;;25.28;41.12
62524;BME280;53689;56.878;60.672;2023-07-13T00:27:29;97374.78;;;25.31;40.47
62524;BME280;53689;56.878;60.672;2023-07-13T00:29:56;97380.50;;;25.47;40.69
62524;BME280;53689;56.878;60.672;2023-07-13T00:32:25;97385.16;;;25.34;40.29
62524;BME280;53689;56.878;60.672;2023-07-13T00:34:53;97375.09;;;25.98;39.68
62524;BME280;53689;56.878;60.672;2023-07-13T00:37:21;97382.41;;;25.98;38.93
62524;BME280;53689;56.878;60.672;2023-07-13T00:39:48;97384.66;;;25.38;40.47
62524;BME280;53689;56.878;60.672;2023-07-13T00:42:16;97384.75;;;25.43;39.67
62524;BME280;53689;56.878;60.672;2023-07-13T00:45:06;97387.94;;;25.40;39.73
62524;BME280;53689;56.878;60.672;2023-07-13T00:47:35;97389.16;;;25.61;40.43
62524;BME280;53689;56.878;60.672;2023-07-13T00:50:04;97389.34;;;25.25;40.04
62524;BME280;53689;56.878;60.672;2023-07-13T00:52:36;97391.25;;;25.13;41.24
62524;BME280;53689;56.878;60.672;2023-07-13T00:55:07;97391.91;;;25.03;39.80
62524;BME280;53689;56.878;60.672;2023-07-13T00:57:37;97389.75;;;25.80;38.67
62524;BME280;53689;56.878;60.672;2023-07-13T01:00:08;97390.81;;;25.33;38.93
62524;BME280;53689;56.878;60.672;2023-07-13T01:02:39;97402.13;;;25.59;38.61
62524;BME280;53689;56.878;60.672;2023-07-13T01:05:09;97400.50;;;25.58;38.61
62524;BME280;53689;56.878;60.672;2023-07-13T01:07:38;97402.03;;;25.25;38.96
62524;BME280;53689;56.878;60.672;2023-07-13T01:10:07;97413.31;;;25.80;38.39
62524;BME280;53689;56.878;60.672;2023-07-13T01:12:35;97409.16;;;25.43;38.78
62524;BME280;53689;56.878;60.672;2023-07-13T01:15:05;97418.31;;;25.42;38.33
62524;BME280;53689;56.878;60.672;2023-07-13T01:17:33;97405.00;;;26.03;38.38
62524;BME280;53689;56.878;60.672;2023-07-13T01:20:03;97412.91;;;25.71;38.68
62524;BME280;53689;56.878;60.672;2023-07-13T01:22:32;97405.09;;;24.99;39.40
62524;BME280;53689;56.878;60.672;2023-07-13T01:24:59;97406.16;;;24.98;40.42
62524;BME280;53689;56.878;60.672;2023-07-13T01:27:27;97403.75;;;25.14;39.79
62524;BME280;53689;56.878;60.672;2023-07-13T01:29:55;97412.72;;;25.31;39.66
62524;BME280;53689;56.878;60.672;2023-07-13T01:32:24;97406.22;;;25.96;38.47
62524;BME280;53689;56.878;60.672;2023-07-13T01:34:54;97414.78;;;26.22;37.47
62524;BME280;53689;56.878;60.672;2023-07-13T01:37:23;97407.72;;;25.86;38.08
62524;BME280;53689;56.878;60.672;2023-07-13T01:39:54;97409.69;;;25.74;38.29
62524;BME280;53689;56.878;60.672;2023-07-13T01:42:22;97415.97;;;25.16;38.49
62524;BME280;53689;56.878;60.672;2023-07-13T01:44:49;97414.09;;;24.88;39.54
62524;BME280;53689;56.878;60.672;2023-07-13T01:47:17;97406.16;;;24.98;40.29
62524;BME280;53689;56.878;60.672;2023-07-13T01:49:45;97413.00;;;25.47;38.82
62524;BME280;53689;56.878;60.672;2023-07-13T01:52:14;97410.84;;;25.78;38.00
62524;BME280;53689;56.878;60.672;2023-07-13T01:54:41;97409.75;;;25.16;39.64
62524;BME280;53689;56.878;60.672;2023-07-13T01:57:10;97417.28;;;25.14;39.45
62524;BME280;53689;56.878;60.672;2023-07-13T01:59:38;97404.41;;;25.21;38.69
62524;BME280;53689;56.878;60.672;2023-07-13T02:02:06;97403.31;;;25.80;38.33
62524;BME280;53689;56.878;60.672;2023-07-13T02:04:34;97406.03;;;24.93;38.39
62524;BME280;53689;56.878;60.672;2023-07-13T02:07:02;97398.22;;;24.79;38.43
62524;BME280;53689;56.878;60.672;2023-07-13T02:09:30;97393.50;;;25.16;37.95
62524;BME280;53689;56.878;60.672;2023-07-13T02:11:58;97386.53;;;25.66;37.13
62524;BME280;53689;56.878;60.672;2023-07-13T02:14:32;97389.72;;;25.17;36.83
62524;BME280;53689;56.878;60.672;2023-07-13T02:17:00;97383.97;;;25.59;37.60
62524;BME280;53689;56.878;60.672;2023-07-13T02:19:27;97380.03;;;25.50;38.24
62524;BME280;53689;56.878;60.672;2023-07-13T02:21:55;97389.06;;;25.56;37.40
62524;BME280;53689;56.878;60.672;2023-07-13T02:24:23;97394.28;;;25.45;37.81
62524;BME280;53689;56.878;60.672;2023-07-13T02:26:50;97393.41;;;25.28;36.53
62524;BME280;53689;56.878;60.672;2023-07-13T02:29:18;97392.38;;;25.00;36.90
62524;BME280;53689;56.878;60.672;2023-07-13T02:31:47;97402.69;;;25.15;37.33
62524;BME280;53689;56.878;60.672;2023-07-13T02:34:15;97399.59;;;25.52;35.91
62524;BME280;53689;56.878;60.672;2023-07-13T02:36:42;97405.72;;;25.47;36.47
62524;BME280;53689;56.878;60.672;2023-07-13T02:39:11;97411.72;;;25.20;37.77
62524;BME280;53689;56.878;60.672;2023-07-13T02:41:39;97406.09;;;24.69;39.17
62524;BME280;53689;56.878;60.672;2023-07-13T02:44:07;97414.88;;;24.88;37.28
62524;BME280;53689;56.878;60.672;2023-07-13T02:46:36;97402.13;;;24.60;38.21
62524;BME280;53689;56.878;60.672;2023-07-13T02:49:05;97400.09;;;24.67;36.93
62524;BME280;53689;56.878;60.672;2023-07-13T02:51:33;97405.28;;;24.80;37.92
62524;BME280;53689;56.878;60.672;2023-07-13T02:54:02;97408.81;;;24.69;37.42
62524;BME280;53689;56.878;60.672;2023-07-13T02:56:31;97408.88;;;24.98;36.98
62524;BME280;53689;56.878;60.672;2023-07-13T02:58:59;97413.53;;;25.15;36.29
62524;BME280;53689;56.878;60.672;2023-07-13T03:01:26;97400.50;;;25.00;37.67
62524;BME280;53689;56.878;60.672;2023-07-13T03:03:54;97408.81;;;24.81;36.44
62524;BME280;53689;56.878;60.672;2023-07-13T03:06:24;97404.78;;;24.84;36.96
62524;BME280;53689;56.878;60.672;2023-07-13T03:08:53;97414.38;;;24.50;37.75
62524;BME280;53689;56.878;60.672;2023-07-13T03:11:22;97413.31;;;25.04;37.02
62524;BME280;53689;56.878;60.672;2023-07-13T03:13:57;97416.44;;;24.72;37.63
62524;BME280;53689;56.878;60.672;2023-07-13T03:16:26;97418.91;;;24.86;37.74
62524;BME280;53689;56.878;60.672;2023-07-13T03:18:53;97417.84;;;24.87;37.21
62524;BME280;53689;56.878;60.672;2023-07-13T03:21:24;97413.50;;;24.74;36.83
62524;BME280;53689;56.878;60.672;2023-07-13T03:23:51;97423.50;;;25.72;35.84
62524;BME280;53689;56.878;60.672;2023-07-13T03:26:20;97423.91;;;25.35;36.36
62524;BME280;53689;56.878;60.672;2023-07-13T03:28:48;97432.47;;;25.44;36.07
62524;BME280;53689;56.878;60.672;2023-07-13T03:31:21;97430.22;;;25.70;36.39
62524;BME280;53689;56.878;60.672;2023-07-13T03:33:50;97425.63;;;25.87;36.05
62524;BME280;53689;56.878;60.672;2023-07-13T03:36:20;97422.28;;;25.80;36.09
62524;BME280;53689;56.878;60.672;2023-07-13T03:38:52;97426.22;;;25.14;36.18
62524;BME280;53689;56.878;60.672;2023-07-13T03:41:23;97431.75;;;24.78;36.99
62524;BME280;53689;56.878;60.672;2023-07-13T03:43:53;97437.69;;;25.33;36.53
62524;BME280;53689;56.878;60.672;2023-07-13T03:46:24;97441.28;;;24.81;37.21
62524;BME280;53689;56.878;60.672;2023-07-13T03:48:51;97439.56;;;25.04;36.62
62524;BME280;53689;56.878;60.672;2023-07-13T03:51:19;97437.00;;;24.97;36.52
62524;BME280;53689;56.878;60.672;2023-07-13T03:53:47;97433.47;;;24.97;37.55
62524;BME280;53689;56.878;60.672;2023-07-13T03:56:19;97434.59;;;25.71;36.19
62524;BME280;53689;56.878;60.672;2023-07-13T03:58:49;97429.75;;;24.50;37.55
62524;BME280;53689;56.878;60.672;2023-07-13T04:01:21;97424.78;;;24.83;38.11
62524;BME280;53689;56.878;60.672;2023-07-13T04:03:49;97428.31;;;24.71;37.25
62524;BME280;53689;56.878;60.672;2023-07-13T04:06:19;97439.44;;;25.11;36.14
62524;BME280;53689;56.878;60.672;2023-07-13T04:08:48;97434.34;;;25.14;37.15
62524;BME280;53689;56.878;60.672;2023-07-13T04:11:17;97434.81;;;24.70;36.56
62524;BME280;53689;56.878;60.672;2023-07-13T04:13:46;97423.75;;;24.60;37.12
62524;BME280;53689;56.878;60.672;2023-07-13T04:16:14;97428.25;;;25.07;36.97
62524;BME280;53689;56.878;60.672;2023-07-13T04:18:41;97433.03;;;24.88;36.22
62524;BME280;53689;56.878;60.672;2023-07-13T04:21:09;97426.09;;;24.68;37.37
62524;BME280;53689;56.878;60.672;2023-07-13T04:23:37;97431.03;;;24.59;37.45
62524;BME280;53689;56.878;60.672;2023-07-13T04:26:05;97432.28;;;25.04;37.14
62524;BME280;53689;56.878;60.672;2023-07-13T04:28:33;97430.50;;;25.39;35.71
62524;BME280;53689;56.878;60.672;2023-07-13T04:31:03;97426.56;;;24.89;36.26
62524;BME280;53689;56.878;60.672;2023-07-13T04:33:30;97427.28;;;24.84;36.78
62524;BME280;53689;56.878;60.672;2023-07-13T04:35:58;97428.91;;;24.85;36.53
62524;BME280;53689;56.878;60.672;2023-07-13T04:38:28;97426.75;;;24.99;36.51
62524;BME280;53689;56.878;60.672;2023-07-13T04:40:56;97423.75;;;24.60;36.50
62524;BME280;53689;56.878;60.672;2023-07-13T04:43:25;97423.00;;;24.88;35.91
62524;BME280;53689;56.878;60.672;2023-07-13T04:45:53;97413.31;;;25.04;35.87
62524;BME280;53689;56.878;60.672;2023-07-13T04:48:23;97425.38;;;25.72;35.70
62524;BME280;53689;56.878;60.672;2023-07-13T04:50:54;97428.91;;;24.73;36.75
62524;BME280;53689;56.878;60.672;2023-07-13T04:53:23;97430.22;;;25.41;35.71
62524;BME280;53689;56.878;60.672;2023-07-13T04:55:50;97429.47;;;25.57;36.24
62524;BME280;53689;56.878;60.672;2023-07-13T04:58:18;97424.81;;;25.12;36.15
62524;BME280;53689;56.878;60.672;2023-07-13T05:00:46;97432.09;;;24.70;36.72
62524;BME280;53689;56.878;60.672;2023-07-13T05:03:13;97425.16;;;25.44;36.89
62524;BME280;53689;56.878;60.672;2023-07-13T05:05:42;97431.94;;;25.01;35.56
62524;BME280;53689;56.878;60.672;2023-07-13T05:08:10;97425.97;;;25.45;36.31
62524;BME280;53689;56.878;60.672;2023-07-13T05:10:37;97420.84;;;25.60;34.83
62524;BME280;53689;56.878;60.672;2023-07-13T05:13:05;97424.81;;;25.12;35.69
62524;BME280;53689;56.878;60.672;2023-07-13T05:15:33;97424.16;;;25.33;36.42
62524;BME280;53689;56.878;60.672;2023-07-13T05:18:01;97424.56;;;25.42;35.41
62524;BME280;53689;56.878;60.672;2023-07-13T05:20:29;97434.41;;;25.60;35.19
62524;BME280;53689;56.878;60.672;2023-07-13T05:22:58;97431.78;;;25.83;35.81
62524;BME280;53689;56.878;60.672;2023-07-13T05:25:26;97433.13;;;25.80;34.76
62524;BME280;53689;56.878;60.672;2023-07-13T05:27:53;97428.09;;;25.89;35.56
62524;BME280;53689;56.878;60.672;2023-07-13T05:30:21;97428.09;;;25.72;34.22
62524;BME280;53689;56.878;60.672;2023-07-13T05:32:48;97435.47;;;26.11;35.19
62524;BME280;53689;56.878;60.672;2023-07-13T05:35:16;97436.00;;;25.90;33.77
62524;BME280;53689;56.878;60.672;2023-07-13T05:37:44;97435.41;;;25.42;34.32
62524;BME280;53689;56.878;60.672;2023-07-13T05:40:13;97424.69;;;25.47;34.90
62524;BME280;53689;56.878;60.672;2023-07-13T05:42:40;97428.97;;;25.02;35.52
62524;BME280;53689;56.878;60.672;2023-07-13T05:45:09;97429.88;;;25.08;36.17
62524;BME280;53689;56.878;60.672;2023-07-13T05:47:37;97422.91;;;25.24;35.42
62524;BME280;53689;56.878;60.672;2023-07-13T05:50:05;97422.91;;;25.70;34.18
62524;BME280;53689;56.878;60.672;2023-07-13T05:52:33;97426.19;;;25.55;35.06
62524;BME280;53689;56.878;60.672;2023-07-13T05:55:01;97416.09;;;26.02;34.29
62524;BME280;53689;56.878;60.672;2023-07-13T05:57:30;97414.88;;;25.93;35.31
62524;BME280;53689;56.878;60.672;2023-07-13T05:59:58;97420.72;;;25.67;33.46
62524;BME280;53689;56.878;60.672;2023-07-13T06:02:25;97427.28;;;25.71;34.95
62524;BME280;53689;56.878;60.672;2023-07-13T06:04:53;97424.91;;;25.46;34.04
62524;BME280;53689;56.878;60.672;2023-07-13T06:07:20;97426.63;;;24.94;35.32
62524;BME280;53689;56.878;60.672;2023-07-13T06:09:48;97415.50;;;24.90;35.92
62524;BME280;53689;56.878;60.672;2023-07-13T06:12:16;97410.44;;;25.23;36.64
62524;BME280;53689;56.878;60.672;2023-07-13T06:14:45;97409.97;;;25.43;35.44
62524;BME280;53689;56.878;60.672;2023-07-13T06:17:13;97412.91;;;25.42;35.30
62524;BME280;53689;56.878;60.672;2023-07-13T06:19:40;97405.66;;;25.30;35.65
62524;BME280;53689;56.878;60.672;2023-07-13T06:22:08;97405.09;;;25.45;35.50
62524;BME280;53689;56.878;60.672;2023-07-13T06:24:35;97405.41;;;25.61;35.47
62524;BME280;53689;56.878;60.672;2023-07-13T06:27:04;97417.72;;;25.69;35.08
62524;BME280;53689;56.878;60.672;2023-07-13T06:29:31;97421.13;;;25.47;34.63
62524;BME280;53689;56.878;60.672;2023-07-13T06:32:01;97424.44;;;25.20;35.58
62524;BME280;53689;56.878;60.672;2023-07-13T06:34:29;97420.31;;;24.88;36.41
62524;BME280;53689;56.878;60.672;2023-07-13T06:36:56;97415.56;;;24.96;36.72
62524;BME280;53689;56.878;60.672;2023-07-13T06:39:24;97430.72;;;25.38;34.93
62524;BME280;53689;56.878;60.672;2023-07-13T06:41:52;97433.75;;;25.70;35.90
62524;BME280;53689;56.878;60.672;2023-07-13T06:44:19;97427.94;;;25.61;36.47
62524;BME280;53689;56.878;60.672;2023-07-13T06:46:47;97432.09;;;25.52;36.89
62524;BME280;53689;56.878;60.672;2023-07-13T06:49:16;97433.47;;;25.55;36.13
62524;BME280;53689;56.878;60.672;2023-07-13T06:51:44;97439.88;;;25.48;36.24
62524;BME280;53689;56.878;60.672;2023-07-13T06:54:11;97446.63;;;25.63;34.88
62524;BME280;53689;56.878;60.672;2023-07-13T06:56:39;97439.19;;;25.87;35.29
62524;BME280;53689;56.878;60.672;2023-07-13T06:59:07;97449.63;;;25.61;35.60
62524;BME280;53689;56.878;60.672;2023-07-13T07:01:34;97451.78;;;26.28;34.69
62524;BME280;53689;56.878;60.672;2023-07-13T07:04:03;97450.31;;;26.37;33.79
62524;BME280;53689;56.878;60.672;2023-07-13T07:06:32;97457.09;;;26.40;33.60
62524;BME280;53689;56.878;60.672;2023-07-13T07:09:00;97452.81;;;26.10;34.52
62524;BME280;53689;56.878;60.672;2023-07-13T07:11:27;97460.28;;;26.54;33.90
62524;BME280;53689;56.878;60.672;2023-07-13T07:13:55;97461.31;;;26.30;33.93
62524;BME280;53689;56.878;60.672;2023-07-13T07:16:24;97465.38;;;26.67;34.53
62524;BME280;53689;56.878;60.672;2023-07-13T07:18:52;97466.44;;;26.66;34.36
62524;BME280;53689;56.878;60.672;2023-07-13T07:21:21;97466.91;;;26.07;34.60
62524;BME280;53689;56.878;60.672;2023-07-13T07:23:51;97451.44;;;26.41;34.61
62524;BME280;53689;56.878;60.672;2023-07-13T07:26:19;97454.06;;;26.36;33.56
62524;BME280;53689;56.878;60.672;2023-07-13T07:28:49;97451.19;;;26.65;34.01
62524;BME280;53689;56.878;60.672;2023-07-13T07:31:37;97442.75;;;26.62;33.02
62524;BME280;53689;56.878;60.672;2023-07-13T07:34:07;97440.56;;;26.81;33.77
62524;BME280;53689;56.878;60.672;2023-07-13T07:36:35;97441.03;;;26.55;34.22
62524;BME280;53689;56.878;60.672;2023-07-13T07:39:07;97442.41;;;26.36;33.49
62524;BME280;53689;56.878;60.672;2023-07-13T07:41:35;97438.50;;;26.49;34.46
62524;BME280;53689;56.878;60.672;2023-07-13T07:44:05;97439.13;;;26.95;33.82
62524;BME280;53689;56.878;60.672;2023-07-13T07:46:33;97445.97;;;26.81;33.99
62524;BME280;53689;56.878;60.672;2023-07-13T07:49:00;97450.25;;;27.16;33.13
62524;BME280;53689;56.878;60.672;2023-07-13T07:51:28;97447.66;;;27.32;32.52
62524;BME280;53689;56.878;60.672;2023-07-13T07:53:55;97447.31;;;27.50;32.66
62524;BME280;53689;56.878;60.672;2023-07-13T07:56:24;97453.72;;;27.39;33.35
62524;BME280;53689;56.878;60.672;2023-07-13T07:58:55;97459.59;;;27.03;33.14
62524;BME280;53689;56.878;60.672;2023-07-13T08:01:25;97451.56;;;27.41;33.32
62524;BME280;53689;56.878;60.672;2023-07-13T08:03:56;97453.72;;;27.39;32.54
62524;BME280;53689;56.878;60.672;2023-07-13T08:06:26;97453.66;;;27.06;33.90
62524;BME280;53689;56.878;60.672;2023-07-13T08:09:11;97458.75;;;26.41;32.80
62524;BME280;53689;56.878;60.672;2023-07-13T08:11:41;97452.09;;;26.14;32.86
62524;BME280;53689;56.878;60.672;2023-07-13T08:14:11;97456.94;;;26.69;33.24
62524;BME280;53689;56.878;60.672;2023-07-13T08:16:38;97448.81;;;26.47;32.32
62524;BME280;53689;56.878;60.672;2023-07-13T08:19:06;97450.69;;;26.46;32.53
62524;BME280;53689;56.878;60.672;2023-07-13T08:21:34;97451.66;;;26.40;33.03
62524;BME280;53689;56.878;60.672;2023-07-13T08:24:03;97465.50;;;26.38;33.11
62524;BME280;53689;56.878;60.672;2023-07-13T08:26:31;97461.88;;;26.15;33.00
62524;BME280;53689;56.878;60.672;2023-07-13T08:29:00;97463.00;;;26.93;32.79
62524;BME280;53689;56.878;60.672;2023-07-13T08:31:28;97454.38;;;27.24;32.11
62524;BME280;53689;56.878;60.672;2023-07-13T08:33:55;97463.25;;;27.14;32.50
62524;BME280;53689;56.878;60.672;2023-07-13T08:36:23;97459.47;;;27.42;32.16
62524;BME280;53689;56.878;60.672;2023-07-13T08:38:51;97463.03;;;27.43;30.62
62524;BME280;53689;56.878;60.672;2023-07-13T08:41:19;97453.31;;;27.03;32.50
62524;BME280;53689;56.878;60.672;2023-07-13T08:43:53;97444.63;;;26.61;32.78
62524;BME280;53689;56.878;60.672;2023-07-13T08:46:25;97453.22;;;26.53;30.81
62524;BME280;53689;56.878;60.672;2023-07-13T08:48:57;97457.31;;;26.55;32.22
62524;BME280;53689;56.878;60.672;2023-07-13T08:51:35;97457.28;;;26.90;32.66
62524;BME280;53689;56.878;60.672;2023-07-13T08:54:10;97468.56;;;27.04;31.19
62524;BME280;53689;56.878;60.672;2023-07-13T08:56:40;97462.00;;;26.60;32.32
62524;BME280;53689;56.878;60.672;2023-07-13T08:59:13;97459.47;;;26.19;31.67
62524;BME280;53689;56.878;60.672;2023-07-13T09:01:59;97469.34;;;26.42;31.43
62524;BME280;53689;56.878;60.672;2023-07-13T09:04:32;97464.06;;;26.53;32.78
62524;BME280;53689;56.878;60.672;2023-07-13T09:07:05;97467.84;;;26.52;32.82
62524;BME280;53689;56.878;60.672;2023-07-13T09:09:51;97456.50;;;26.55;32.61
62524;BME280;53689;56.878;60.672;2023-07-13T09:12:26;97459.28;;;26.60;32.65
62524;BME280;53689;56.878;60.672;2023-07-13T09:14:58;97467.28;;;27.34;31.57
62524;BME280;53689;56.878;60.672;2023-07-13T09:17:32;97461.94;;;26.94;31.91
62524;BME280;53689;56.878;60.672;2023-07-13T09:20:06;97465.38;;;26.50;31.48
62524;BME280;53689;56.878;60.672;2023-07-13T09:22:38;97467.34;;;26.55;32.87
62524;BME280;53689;56.878;60.672;2023-07-13T09:25:18;97461.69;;;26.56;31.77
62524;BME280;53689;56.878;60.672;2023-07-13T09:27:48;97467.00;;;26.68;31.38
62524;BME280;53689;56.878;60.672;2023-07-13T09:30:26;97465.84;;;26.64;32.59
62524;BME280;53689;56.878;60.672;2023-07-13T09:32:57;97469.28;;;26.77;31.33
62524;BME280;53689;56.878;60.672;2023-07-13T09:35:27;97461.91;;;26.72;30.97
62524;BME280;53689;56.878;60.672;2023-07-13T09:38:01;97454.50;;;26.28;32.59
62524;BME280;53689;56.878;60.672;2023-07-13T09:40:44;97458.44;;;26.20;31.76
62524;BME280;53689;56.878;60.672;2023-07-13T09:43:15;97452.50;;;26.40;32.11
62524;BME280;53689;56.878;60.672;2023-07-13T09:45:43;97464.66;;;26.38;30.79
62524;BME280;53689;56.878;60.672;2023-07-13T09:48:14;97463.41;;;26.45;31.72
62524;BME280;53689;56.878;60.672;2023-07-13T09:50:44;97456.75;;;26.93;31.40
62524;BME280;53689;56.878;60.672;2023-07-13T09:53:13;97458.59;;;26.70;31.32
62524;BME280;53689;56.878;60.672;2023-07-13T09:55:43;97464.41;;;26.56;31.43
62524;BME280;53689;56.878;60.672;2023-07-13T09:58:13;97452.81;;;26.10;32.08
62524;BME280;53689;56.878;60.672;2023-07-13T10:00:43;97452.28;;;26.25;31.86
62524;BME280;53689;56.878;60.672;2023-07-13T10:03:17;97449.75;;;26.57;32.48
62524;BME280;53689;56.878;60.672;2023-07-13T10:05:47;97452.50;;;26.80;31.62
62524;BME280;53689;56.878;60.672;2023-07-13T10:08:17;97443.97;;;26.93;30.63
62524;BME280;53689;56.878;60.672;2023-07-13T10:10:46;97450.66;;;26.85;31.55
62524;BME280;53689;56.878;60.672;2023-07-13T10:13:37;97443.41;;;26.91;31.70
62524;BME280;53689;56.878;60.672;2023-07-13T10:16:08;97430.63;;;26.69;32.04
62524;BME280;53689;56.878;60.672;2023-07-13T10:18:42;97440.56;;;26.41;31.56
62524;BME280;53689;56.878;60.672;2023-07-13T10:21:15;97438.69;;;26.64;31.64
62524;BME280;53689;56.878;60.672;2023-07-13T10:23:50;97439.19;;;27.00;31.37
62524;BME280;53689;56.878;60.672;2023-07-13T10:26:23;97434.28;;;26.58;31.64
62524;BME280;53689;56.878;60.672;2023-07-13T10:28:55;97417.31;;;26.11;30.98
62524;BME280;53689;56.878;60.672;2023-07-13T10:31:24;97421.50;;;26.19;31.61
62524;BME280;53689;56.878;60.672;2023-07-13T10:33:54;97416.75;;;26.09;31.92
62524;BME280;53689;56.878;60.672;2023-07-13T10:36:30;97419.13;;;26.62;31.63
62524;BME280;53689;56.878;60.672;2023-07-13T10:39:01;97421.66;;;27.41;30.14
62524;BME280;53689;56.878;60.672;2023-07-13T10:41:33;97419.16;;;27.34;30.65
62524;BME280;53689;56.878;60.672;2023-07-13T10:44:01;97422.31;;;27.21;31.11
62524;BME280;53689;56.878;60.672;2023-07-13T10:46:30;97418.00;;;27.03;30.84
62524;BME280;53689;56.878;60.672;2023-07-13T10:49:02;97418.06;;;26.85;30.43
62524;BME280;53689;56.878;60.672;2023-07-13T10:51:32;97426.53;;;27.11;31.18
62524;BME280;53689;56.878;60.672;2023-07-13T10:54:16;97416.84;;;26.54;31.93
62524;BME280;53689;56.878;60.672;2023-07-13T10:56:50;97411.84;;;26.85;31.86
62524;BME280;53689;56.878;60.672;2023-07-13T10:59:25;97412.94;;;27.34;30.48
62524;BME280;53689;56.878;60.672;2023-07-13T11:01:56;97412.91;;;26.62;30.09
62524;BME280;53689;56.878;60.672;2023-07-13T11:04:27;97415.53;;;26.56;30.54
62524;BME280;53689;56.878;60.672;2023-07-13T11:06:58;97420.59;;;27.14;30.90
62524;BME280;53689;56.878;60.672;2023-07-13T11:09:34;97425.19;;;26.47;30.56
62524;BME280;53689;56.878;60.672;2023-07-13T11:12:07;97426.16;;;26.41;30.61
62524;BME280;53689;56.878;60.672;2023-07-13T11:14:36;97426.59;;;26.50;31.08
62524;BME280;53689;56.878;60.672;2023-07-13T11:17:37;97424.34;;;26.86;30.94
62524;BME280;53689;56.878;60.672;2023-07-13T11:20:32;97425.00;;;26.76;30.03
62524;BME280;53689;56.878;60.672;2023-07-13T11:23:28;97420.44;;;26.59;30.27
62524;BME280;53689;56.878;60.672;2023-07-13T11:25:56;97422.44;;;27.09;31.18
62524;BME280;53689;56.878;60.672;2023-07-13T11:28:25;97422.44;;;27.09;29.54
62524;BME280;53689;56.878;60.672;2023-07-13T11:31:03;97414.75;;;26.39;29.92
62524;BME280;53689;56.878;60.672;2023-07-13T11:33:52;97404.41;;;26.36;29.83
62524;BME280;53689;56.878;60.672;2023-07-13T11:36:24;97410.63;;;26.98;30.64
62524;BME280;53689;56.878;60.672;2023-07-13T11:39:00;97401.72;;;26.58;29.68
62524;BME280;53689;56.878;60.672;2023-07-13T11:41:31;97396.97;;;26.48;29.81
62524;BME280;53689;56.878;60.672;2023-07-13T11:44:07;97392.44;;;26.54;30.14
62524;BME280;53689;56.878;60.672;2023-07-13T11:46:35;97385.88;;;26.72;29.37
62524;BME280;53689;56.878;60.672;2023-07-13T11:49:05;97384.53;;;26.74;29.11
62524;BME280;53689;56.878;60.672;2023-07-13T11:51:36;97384.91;;;26.61;28.99
62524;BME280;53689;56.878;60.672;2023-07-13T11:54:05;97390.56;;;26.77;29.39
62524;BME280;53689;56.878;60.672;2023-07-13T11:56:34;97384.25;;;27.21;29.24
62524;BME280;53689;56.878;60.672;2023-07-13T11:59:07;97373.66;;;26.74;28.76
62524;BME280;53689;56.878;60.672;2023-07-13T12:01:43;97373.31;;;26.66;30.70
62524;BME280;53689;56.878;60.672;2023-07-13T12:04:21;97373.53;;;27.09;29.63
62524;BME280;53689;56.878;60.672;2023-07-13T12:06:56;97376.81;;;27.11;27.65
62524;BME280;53689;56.878;60.672;2023-07-13T12:09:26;97374.88;;;26.39;28.88
62524;BME280;53689;56.878;60.672;2023-07-13T12:11:56;97364.59;;;26.41;28.46
62524;BME280;53689;56.878;60.672;2023-07-13T12:14:24;97364.94;;;26.90;30.23
62524;BME280;53689;56.878;60.672;2023-07-13T12:16:54;97371.16;;;26.90;28.76
62524;BME280;53689;56.878;60.672;2023-07-13T12:19:23;97371.47;;;26.49;28.64
62524;BME280;53689;56.878;60.672;2023-07-13T12:21:56;97362.31;;;26.55;29.82
62524;BME280;53689;56.878;60.672;2023-07-13T12:24:25;97366.91;;;26.77;28.97
62524;BME280;53689;56.878;60.672;2023-07-13T12:26:54;97364.16;;;26.72;28.57
62524;BME280;53689;56.878;60.672;2023-07-13T12:29:22;97357.53;;;26.40;28.49
62524;BME280;53689;56.878;60.672;2023-07-13T12:31:50;97360.16;;;26.35;29.43
62524;BME280;53689;56.878;60.672;2023-07-13T12:34:20;97357.41;;;26.52;28.76
62524;BME280;53689;56.878;60.672;2023-07-13T12:36:49;97353.41;;;26.38;28.43
62524;BME280;53689;56.878;60.672;2023-07-13T12:39:22;97361.25;;;26.17;29.36
62524;BME280;53689;56.878;60.672;2023-07-13T12:41:51;97345.53;;;26.19;29.50
62524;BME280;53689;56.878;60.672;2023-07-13T12:44:26;97343.53;;;26.49;28.45
62524;BME280;53689;56.878;60.672;2023-07-13T12:46:58;97344.72;;;26.36;28.50
62524;BME280;53689;56.878;60.672;2023-07-13T12:49:31;97347.38;;;26.13;29.29
62524;BME280;53689;56.878;60.672;2023-07-13T12:52:01;97347.00;;;26.04;29.28
62524;BME280;53689;56.878;60.672;2023-07-13T12:54:31;97341.50;;;26.61;29.60
62524;BME280;53689;56.878;60.672;2023-07-13T12:57:00;97341.84;;;26.92;28.43
62524;BME280;53689;56.878;60.672;2023-07-13T12:59:31;97343.38;;;26.60;29.54
62524;BME280;53689;56.878;60.672;2023-07-13T13:01:59;97341.28;;;26.90;30.20
62524;BME280;53689;56.878;60.672;2023-07-13T13:04:27;97338.22;;;27.09;30.14